sensor_id;sensor_type;location;lat;lon;timestamp;temperature;humidity
39951;DHT22;25629;51.444;-2.606;2022-07-11T00:02:15;20.70;90.00
39951;DHT22;25629;51.444;-2.606;2022-07-11T00:04:41;20.60;89.40
39951;DHT22;25629;51.444;-2.606;2022-07-11T00:07:12;20.60;89.30
39951;DHT22;25629;51.444;-2.606;2022-07-11T00:09:38;20.60;89.70
39951;DHT22;25629;51.444;-2.606;2022-07-11T00:12:03;20.60;89.20
39951;DHT22;25629;51.444;-2.606;2022-07-11T00:14:29;20.60;89.40
39951;DHT22;25629;51.444;-2.606;2022-07-11T00:16:55;20.50;89.60
39951;DHT22;25629;51.444;-2.606;2022-07-11T00:19:21;20.50;90.40
39951;DHT22;25629;51.444;-2.606;2022-07-11T00:21:47;20.50;89.90
39951;DHT22;25629;51.444;-2.606;2022-07-11T00:24:12;20.50;90.00
39951;DHT22;25629;51.444;-2.606;2022-07-11T00:26:38;20.50;90.10
39951;DHT22;25629;51.444;-2.606;2022-07-11T00:29:04;20.40;90.20
39951;DHT22;25629;51.444;-2.606;2022-07-11T00:31:30;20.30;90.40
39951;DHT22;25629;51.444;-2.606;2022-07-11T00:33:56;20.20;90.50
39951;DHT22;25629;51.444;-2.606;2022-07-11T00:36:21;20.20;90.70
39951;DHT22;25629;51.444;-2.606;2022-07-11T00:38:47;20.20;90.90
39951;DHT22;25629;51.444;-2.606;2022-07-11T00:41:13;20.20;90.80
39951;DHT22;25629;51.444;-2.606;2022-07-11T00:43:39;20.20;91.50
39951;DHT22;25629;51.444;-2.606;2022-07-11T00:46:05;20.20;91.10
39951;DHT22;25629;51.444;-2.606;2022-07-11T00:48:31;20.20;91.30
39951;DHT22;25629;51.444;-2.606;2022-07-11T00:50:57;20.10;91.10
39951;DHT22;25629;51.444;-2.606;2022-07-11T00:53:23;20.00;91.20
39951;DHT22;25629;51.444;-2.606;2022-07-11T00:55:49;20.00;91.30
39951;DHT22;25629;51.444;-2.606;2022-07-11T00:58:15;19.90;91.30
39951;DHT22;25629;51.444;-2.606;2022-07-11T01:00:41;19.90;91.30
39951;DHT22;25629;51.444;-2.606;2022-07-11T01:03:06;19.90;91.50
39951;DHT22;25629;51.444;-2.606;2022-07-11T01:05:32;19.80;91.60
39951;DHT22;25629;51.444;-2.606;2022-07-11T01:07:58;19.80;91.70
39951;DHT22;25629;51.444;-2.606;2022-07-11T01:10:23;19.80;92.00
39951;DHT22;25629;51.444;-2.606;2022-07-11T01:12:49;19.70;92.20
39951;DHT22;25629;51.444;-2.606;2022-07-11T01:15:15;19.70;92.20
39951;DHT22;25629;51.444;-2.606;2022-07-11T01:17:41;19.70;92.10
39951;DHT22;25629;51.444;-2.606;2022-07-11T01:20:07;19.80;92.00
39951;DHT22;25629;51.444;-2.606;2022-07-11T01:22:35;19.80;92.20
39951;DHT22;25629;51.444;-2.606;2022-07-11T01:25:01;19.70;92.20
39951;DHT22;25629;51.444;-2.606;2022-07-11T01:27:27;19.70;92.10
39951;DHT22;25629;51.444;-2.606;2022-07-11T01:29:54;19.70;92.60
39951;DHT22;25629;51.444;-2.606;2022-07-11T01:32:20;19.60;92.40
39951;DHT22;25629;51.444;-2.606;2022-07-11T01:34:46;19.60;92.70
39951;DHT22;25629;51.444;-2.606;2022-07-11T01:37:12;19.50;93.20
39951;DHT22;25629;51.444;-2.606;2022-07-11T01:39:38;19.50;92.90
39951;DHT22;25629;51.444;-2.606;2022-07-11T01:42:03;19.50;93.60
39951;DHT22;25629;51.444;-2.606;2022-07-11T01:44:29;19.50;94.00
39951;DHT22;25629;51.444;-2.606;2022-07-11T01:46:55;19.50;93.80
39951;DHT22;25629;51.444;-2.606;2022-07-11T01:49:20;19.50;93.70
39951;DHT22;25629;51.444;-2.606;2022-07-11T01:51:46;19.40;94.10
39951;DHT22;25629;51.444;-2.606;2022-07-11T01:54:12;19.40;94.20
39951;DHT22;25629;51.444;-2.606;2022-07-11T01:56:37;19.40;94.50
39951;DHT22;25629;51.444;-2.606;2022-07-11T01:59:03;19.30;93.80
39951;DHT22;25629;51.444;-2.606;2022-07-11T02:01:28;19.30;94.00
39951;DHT22;25629;51.444;-2.606;2022-07-11T02:03:55;19.30;94.50
39951;DHT22;25629;51.444;-2.606;2022-07-11T02:06:20;19.20;94.20
39951;DHT22;25629;51.444;-2.606;2022-07-11T02:08:46;19.20;94.00
39951;DHT22;25629;51.444;-2.606;2022-07-11T02:11:11;19.20;94.10
39951;DHT22;25629;51.444;-2.606;2022-07-11T02:13:37;19.30;94.00
39951;DHT22;25629;51.444;-2.606;2022-07-11T02:16:02;19.20;94.00
39951;DHT22;25629;51.444;-2.606;2022-07-11T02:18:28;19.20;94.20
39951;DHT22;25629;51.444;-2.606;2022-07-11T02:20:54;19.10;94.40
39951;DHT22;25629;51.444;-2.606;2022-07-11T02:23:20;19.10;95.00
39951;DHT22;25629;51.444;-2.606;2022-07-11T02:25:46;19.00;94.70
39951;DHT22;25629;51.444;-2.606;2022-07-11T02:28:12;19.00;94.50
39951;DHT22;25629;51.444;-2.606;2022-07-11T02:30:39;19.00;94.60
39951;DHT22;25629;51.444;-2.606;2022-07-11T02:33:05;18.90;94.90
39951;DHT22;25629;51.444;-2.606;2022-07-11T02:35:32;18.90;95.00
39951;DHT22;25629;51.444;-2.606;2022-07-11T02:37:59;18.90;94.90
39951;DHT22;25629;51.444;-2.606;2022-07-11T02:40:25;18.90;95.00
39951;DHT22;25629;51.444;-2.606;2022-07-11T02:42:52;18.80;95.10
39951;DHT22;25629;51.444;-2.606;2022-07-11T02:45:17;18.60;95.50
39951;DHT22;25629;51.444;-2.606;2022-07-11T02:47:43;18.60;95.70
39951;DHT22;25629;51.444;-2.606;2022-07-11T02:50:09;18.40;95.90
39951;DHT22;25629;51.444;-2.606;2022-07-11T02:52:36;18.50;96.10
39951;DHT22;25629;51.444;-2.606;2022-07-11T02:55:02;18.50;97.00
39951;DHT22;25629;51.444;-2.606;2022-07-11T02:57:28;18.40;96.60
39951;DHT22;25629;51.444;-2.606;2022-07-11T02:59:54;18.40;97.10
39951;DHT22;25629;51.444;-2.606;2022-07-11T03:02:19;18.40;96.80
39951;DHT22;25629;51.444;-2.606;2022-07-11T03:04:45;18.30;96.90
39951;DHT22;25629;51.444;-2.606;2022-07-11T03:07:11;18.30;97.30
39951;DHT22;25629;51.444;-2.606;2022-07-11T03:09:36;18.20;97.40
39951;DHT22;25629;51.444;-2.606;2022-07-11T03:12:03;18.20;97.50
39951;DHT22;25629;51.444;-2.606;2022-07-11T03:14:29;18.20;98.30
39951;DHT22;25629;51.444;-2.606;2022-07-11T03:16:54;18.20;98.30
39951;DHT22;25629;51.444;-2.606;2022-07-11T03:19:20;18.20;98.60
39951;DHT22;25629;51.444;-2.606;2022-07-11T03:21:45;18.20;98.50
39951;DHT22;25629;51.444;-2.606;2022-07-11T03:24:11;18.20;99.10
39951;DHT22;25629;51.444;-2.606;2022-07-11T03:26:37;18.20;98.90
39951;DHT22;25629;51.444;-2.606;2022-07-11T03:29:04;18.20;98.50
39951;DHT22;25629;51.444;-2.606;2022-07-11T03:31:29;18.10;98.70
39951;DHT22;25629;51.444;-2.606;2022-07-11T03:33:55;18.20;98.90
39951;DHT22;25629;51.444;-2.606;2022-07-11T03:36:20;18.20;98.50
39951;DHT22;25629;51.444;-2.606;2022-07-11T03:38:46;18.20;98.70
39951;DHT22;25629;51.444;-2.606;2022-07-11T03:41:12;18.20;98.80
39951;DHT22;25629;51.444;-2.606;2022-07-11T03:43:38;18.30;98.70
39951;DHT22;25629;51.444;-2.606;2022-07-11T03:46:03;18.20;98.60
39951;DHT22;25629;51.444;-2.606;2022-07-11T03:48:31;18.10;98.80
39951;DHT22;25629;51.444;-2.606;2022-07-11T03:50:57;18.10;99.00
39951;DHT22;25629;51.444;-2.606;2022-07-11T03:53:22;18.10;99.20
39951;DHT22;25629;51.444;-2.606;2022-07-11T03:55:48;17.90;99.50
39951;DHT22;25629;51.444;-2.606;2022-07-11T03:58:14;17.90;99.90
39951;DHT22;25629;51.444;-2.606;2022-07-11T04:00:39;17.90;99.90
39951;DHT22;25629;51.444;-2.606;2022-07-11T04:03:05;17.80;99.90
39951;DHT22;25629;51.444;-2.606;2022-07-11T04:05:31;17.80;99.90
39951;DHT22;25629;51.444;-2.606;2022-07-11T04:07:56;17.90;99.90
39951;DHT22;25629;51.444;-2.606;2022-07-11T04:10:23;17.90;99.90
39951;DHT22;25629;51.444;-2.606;2022-07-11T04:12:48;17.90;99.90
39951;DHT22;25629;51.444;-2.606;2022-07-11T04:15:14;17.90;99.90
39951;DHT22;25629;51.444;-2.606;2022-07-11T04:17:40;17.80;99.90
39951;DHT22;25629;51.444;-2.606;2022-07-11T04:20:05;17.80;99.90
39951;DHT22;25629;51.444;-2.606;2022-07-11T04:22:31;17.80;99.90
39951;DHT22;25629;51.444;-2.606;2022-07-11T04:24:57;17.80;99.90
39951;DHT22;25629;51.444;-2.606;2022-07-11T04:27:22;17.90;99.90
39951;DHT22;25629;51.444;-2.606;2022-07-11T04:29:49;17.90;99.90
39951;DHT22;25629;51.444;-2.606;2022-07-11T04:32:15;17.90;99.90
39951;DHT22;25629;51.444;-2.606;2022-07-11T04:34:40;17.90;99.90
39951;DHT22;25629;51.444;-2.606;2022-07-11T04:37:06;17.90;99.90
39951;DHT22;25629;51.444;-2.606;2022-07-11T04:39:31;17.90;99.90
39951;DHT22;25629;51.444;-2.606;2022-07-11T04:42:00;17.80;99.90
39951;DHT22;25629;51.444;-2.606;2022-07-11T04:44:26;17.80;99.90
39951;DHT22;25629;51.444;-2.606;2022-07-11T04:46:52;17.80;99.90
39951;DHT22;25629;51.444;-2.606;2022-07-11T04:49:17;17.70;99.90
39951;DHT22;25629;51.444;-2.606;2022-07-11T04:51:44;17.70;99.90
39951;DHT22;25629;51.444;-2.606;2022-07-11T04:54:09;17.70;99.90
39951;DHT22;25629;51.444;-2.606;2022-07-11T04:56:35;17.70;99.90
39951;DHT22;25629;51.444;-2.606;2022-07-11T04:59:00;17.70;99.90
39951;DHT22;25629;51.444;-2.606;2022-07-11T05:01:26;17.70;99.90
39951;DHT22;25629;51.444;-2.606;2022-07-11T05:03:54;17.70;99.90
39951;DHT22;25629;51.444;-2.606;2022-07-11T05:06:20;17.80;99.90
39951;DHT22;25629;51.444;-2.606;2022-07-11T05:08:45;17.80;99.90
39951;DHT22;25629;51.444;-2.606;2022-07-11T05:11:11;17.80;99.90
39951;DHT22;25629;51.444;-2.606;2022-07-11T05:13:36;17.90;99.90
39951;DHT22;25629;51.444;-2.606;2022-07-11T05:16:03;17.90;99.90
39951;DHT22;25629;51.444;-2.606;2022-07-11T05:18:28;17.90;99.90
39951;DHT22;25629;51.444;-2.606;2022-07-11T05:20:54;17.90;99.90
39951;DHT22;25629;51.444;-2.606;2022-07-11T05:23:19;17.90;99.90
39951;DHT22;25629;51.444;-2.606;2022-07-11T05:25:45;18.00;99.90
39951;DHT22;25629;51.444;-2.606;2022-07-11T05:28:11;18.00;99.90
39951;DHT22;25629;51.444;-2.606;2022-07-11T05:30:36;18.10;99.90
39951;DHT22;25629;51.444;-2.606;2022-07-11T05:33:02;18.20;99.90
39951;DHT22;25629;51.444;-2.606;2022-07-11T05:35:27;18.20;99.90
39951;DHT22;25629;51.444;-2.606;2022-07-11T05:37:53;18.10;99.90
39951;DHT22;25629;51.444;-2.606;2022-07-11T05:40:19;18.10;99.90
39951;DHT22;25629;51.444;-2.606;2022-07-11T05:42:45;18.20;99.90
39951;DHT22;25629;51.444;-2.606;2022-07-11T05:45:11;18.30;99.90
39951;DHT22;25629;51.444;-2.606;2022-07-11T05:47:37;18.30;99.90
39951;DHT22;25629;51.444;-2.606;2022-07-11T05:50:02;18.30;99.90
39951;DHT22;25629;51.444;-2.606;2022-07-11T05:52:28;18.40;99.90
39951;DHT22;25629;51.444;-2.606;2022-07-11T05:54:54;18.40;99.90
39951;DHT22;25629;51.444;-2.606;2022-07-11T05:57:19;18.40;99.90
39951;DHT22;25629;51.444;-2.606;2022-07-11T05:59:45;18.60;99.90
39951;DHT22;25629;51.444;-2.606;2022-07-11T06:02:11;18.60;99.90
39951;DHT22;25629;51.444;-2.606;2022-07-11T06:04:37;18.70;99.90
39951;DHT22;25629;51.444;-2.606;2022-07-11T06:07:02;18.80;99.90
39951;DHT22;25629;51.444;-2.606;2022-07-11T06:09:28;18.90;99.90
39951;DHT22;25629;51.444;-2.606;2022-07-11T06:11:54;19.00;99.90
39951;DHT22;25629;51.444;-2.606;2022-07-11T06:14:19;19.10;99.90
39951;DHT22;25629;51.444;-2.606;2022-07-11T06:16:45;19.10;99.90
39951;DHT22;25629;51.444;-2.606;2022-07-11T06:19:10;19.30;99.90
39951;DHT22;25629;51.444;-2.606;2022-07-11T06:21:36;19.40;99.90
39951;DHT22;25629;51.444;-2.606;2022-07-11T06:24:01;19.50;99.90
39951;DHT22;25629;51.444;-2.606;2022-07-11T06:26:27;19.60;99.90
39951;DHT22;25629;51.444;-2.606;2022-07-11T06:28:53;19.70;99.90
39951;DHT22;25629;51.444;-2.606;2022-07-11T06:31:18;19.90;99.90
39951;DHT22;25629;51.444;-2.606;2022-07-11T06:33:45;20.00;99.90
39951;DHT22;25629;51.444;-2.606;2022-07-11T06:36:10;20.10;99.90
39951;DHT22;25629;51.444;-2.606;2022-07-11T06:38:36;20.20;99.90
39951;DHT22;25629;51.444;-2.606;2022-07-11T06:41:01;20.30;99.90
39951;DHT22;25629;51.444;-2.606;2022-07-11T06:43:30;20.40;99.80
39951;DHT22;25629;51.444;-2.606;2022-07-11T06:45:56;20.60;99.60
39951;DHT22;25629;51.444;-2.606;2022-07-11T06:48:21;20.70;99.60
39951;DHT22;25629;51.444;-2.606;2022-07-11T06:50:47;20.80;99.60
39951;DHT22;25629;51.444;-2.606;2022-07-11T06:53:13;21.00;99.70
39951;DHT22;25629;51.444;-2.606;2022-07-11T06:55:38;21.10;99.70
39951;DHT22;25629;51.444;-2.606;2022-07-11T06:58:04;21.20;99.70
39951;DHT22;25629;51.444;-2.606;2022-07-11T07:00:30;21.30;99.70
39951;DHT22;25629;51.444;-2.606;2022-07-11T07:02:57;21.40;99.50
39951;DHT22;25629;51.444;-2.606;2022-07-11T07:05:25;21.50;99.00
39951;DHT22;25629;51.444;-2.606;2022-07-11T07:07:51;21.60;98.50
39951;DHT22;25629;51.444;-2.606;2022-07-11T07:10:17;21.70;98.40
39951;DHT22;25629;51.444;-2.606;2022-07-11T07:12:43;21.90;98.10
39951;DHT22;25629;51.444;-2.606;2022-07-11T07:15:09;22.10;97.60
39951;DHT22;25629;51.444;-2.606;2022-07-11T07:17:35;22.10;97.60
39951;DHT22;25629;51.444;-2.606;2022-07-11T07:20:01;22.20;96.90
39951;DHT22;25629;51.444;-2.606;2022-07-11T07:22:26;22.40;96.50
39951;DHT22;25629;51.444;-2.606;2022-07-11T07:24:52;22.60;96.20
39951;DHT22;25629;51.444;-2.606;2022-07-11T07:27:17;22.70;95.90
39951;DHT22;25629;51.444;-2.606;2022-07-11T07:29:43;22.90;95.10
39951;DHT22;25629;51.444;-2.606;2022-07-11T07:32:08;23.10;95.30
39951;DHT22;25629;51.444;-2.606;2022-07-11T07:34:34;23.20;95.30
39951;DHT22;25629;51.444;-2.606;2022-07-11T07:37:00;23.30;95.40
39951;DHT22;25629;51.444;-2.606;2022-07-11T07:39:25;23.50;95.10
39951;DHT22;25629;51.444;-2.606;2022-07-11T07:41:52;23.60;94.40
39951;DHT22;25629;51.444;-2.606;2022-07-11T07:44:18;23.70;93.80
39951;DHT22;25629;51.444;-2.606;2022-07-11T07:46:43;23.80;94.00
39951;DHT22;25629;51.444;-2.606;2022-07-11T07:49:09;24.00;94.10
39951;DHT22;25629;51.444;-2.606;2022-07-11T07:51:35;24.10;93.60
39951;DHT22;25629;51.444;-2.606;2022-07-11T07:54:01;24.20;93.40
39951;DHT22;25629;51.444;-2.606;2022-07-11T07:56:27;24.40;93.70
39951;DHT22;25629;51.444;-2.606;2022-07-11T07:58:53;24.60;93.30
39951;DHT22;25629;51.444;-2.606;2022-07-11T08:01:19;24.80;92.80
39951;DHT22;25629;51.444;-2.606;2022-07-11T08:04:03;24.90;93.00
39951;DHT22;25629;51.444;-2.606;2022-07-11T08:06:29;25.20;92.60
39951;DHT22;25629;51.444;-2.606;2022-07-11T08:08:55;25.50;92.50
39951;DHT22;25629;51.444;-2.606;2022-07-11T08:11:20;25.70;92.00
39951;DHT22;25629;51.444;-2.606;2022-07-11T08:13:46;25.90;91.40
39951;DHT22;25629;51.444;-2.606;2022-07-11T08:16:12;26.00;91.10
39951;DHT22;25629;51.444;-2.606;2022-07-11T08:18:37;26.10;91.30
39951;DHT22;25629;51.444;-2.606;2022-07-11T08:21:03;26.30;91.10
39951;DHT22;25629;51.444;-2.606;2022-07-11T08:23:28;26.50;91.10
39951;DHT22;25629;51.444;-2.606;2022-07-11T08:25:54;26.70;91.10
39951;DHT22;25629;51.444;-2.606;2022-07-11T08:28:19;27.00;90.70
39951;DHT22;25629;51.444;-2.606;2022-07-11T08:30:45;27.10;90.00
39951;DHT22;25629;51.444;-2.606;2022-07-11T08:33:13;27.20;89.70
39951;DHT22;25629;51.444;-2.606;2022-07-11T08:35:39;27.10;89.60
39951;DHT22;25629;51.444;-2.606;2022-07-11T08:38:04;27.30;90.00
39951;DHT22;25629;51.444;-2.606;2022-07-11T08:40:30;27.30;89.00
39951;DHT22;25629;51.444;-2.606;2022-07-11T08:42:56;27.30;89.10
39951;DHT22;25629;51.444;-2.606;2022-07-11T08:45:30;27.40;88.40
39951;DHT22;25629;51.444;-2.606;2022-07-11T08:47:57;27.50;88.60
39951;DHT22;25629;51.444;-2.606;2022-07-11T08:50:23;27.60;88.90
39951;DHT22;25629;51.444;-2.606;2022-07-11T08:52:50;27.80;87.70
39951;DHT22;25629;51.444;-2.606;2022-07-11T08:55:16;27.70;87.30
39951;DHT22;25629;51.444;-2.606;2022-07-11T08:57:42;27.60;87.20
39951;DHT22;25629;51.444;-2.606;2022-07-11T09:00:08;27.50;87.80
39951;DHT22;25629;51.444;-2.606;2022-07-11T09:02:34;27.50;87.90
39951;DHT22;25629;51.444;-2.606;2022-07-11T09:05:03;27.70;86.90
39951;DHT22;25629;51.444;-2.606;2022-07-11T09:07:33;27.70;86.40
39951;DHT22;25629;51.444;-2.606;2022-07-11T09:09:59;27.70;87.10
39951;DHT22;25629;51.444;-2.606;2022-07-11T09:12:24;27.90;87.10
39951;DHT22;25629;51.444;-2.606;2022-07-11T09:14:50;28.10;87.00
39951;DHT22;25629;51.444;-2.606;2022-07-11T09:17:26;28.40;85.90
39951;DHT22;25629;51.444;-2.606;2022-07-11T09:19:52;28.40;85.70
39951;DHT22;25629;51.444;-2.606;2022-07-11T09:22:17;28.50;86.00
39951;DHT22;25629;51.444;-2.606;2022-07-11T09:25:12;28.70;86.10
39951;DHT22;25629;51.444;-2.606;2022-07-11T09:27:58;28.80;86.40
39951;DHT22;25629;51.444;-2.606;2022-07-11T09:30:27;29.10;85.70
39951;DHT22;25629;51.444;-2.606;2022-07-11T09:35:20;29.70;85.00
39951;DHT22;25629;51.444;-2.606;2022-07-11T09:37:45;29.70;84.50
39951;DHT22;25629;51.444;-2.606;2022-07-11T09:40:14;29.90;84.30
39951;DHT22;25629;51.444;-2.606;2022-07-11T09:42:55;29.90;84.30
39951;DHT22;25629;51.444;-2.606;2022-07-11T09:45:21;30.00;85.30
39951;DHT22;25629;51.444;-2.606;2022-07-11T09:47:48;30.20;83.70
39951;DHT22;25629;51.444;-2.606;2022-07-11T09:50:20;30.10;84.70
39951;DHT22;25629;51.444;-2.606;2022-07-11T09:53:00;30.40;83.90
39951;DHT22;25629;51.444;-2.606;2022-07-11T09:55:26;30.60;83.30
39951;DHT22;25629;51.444;-2.606;2022-07-11T09:57:52;30.60;82.60
39951;DHT22;25629;51.444;-2.606;2022-07-11T10:00:18;30.90;82.40
39951;DHT22;25629;51.444;-2.606;2022-07-11T10:02:43;30.90;82.00
39951;DHT22;25629;51.444;-2.606;2022-07-11T10:05:10;30.70;81.90
39951;DHT22;25629;51.444;-2.606;2022-07-11T10:07:35;30.60;82.20
39951;DHT22;25629;51.444;-2.606;2022-07-11T10:10:02;30.70;82.60
39951;DHT22;25629;51.444;-2.606;2022-07-11T10:12:28;30.90;81.70
39951;DHT22;25629;51.444;-2.606;2022-07-11T10:14:57;30.90;83.00
39951;DHT22;25629;51.444;-2.606;2022-07-11T10:17:40;31.00;83.30
39951;DHT22;25629;51.444;-2.606;2022-07-11T10:20:20;30.80;81.10
39951;DHT22;25629;51.444;-2.606;2022-07-11T10:25:28;30.70;82.90
39951;DHT22;25629;51.444;-2.606;2022-07-11T10:28:06;30.80;81.50
39951;DHT22;25629;51.444;-2.606;2022-07-11T10:33:06;31.70;81.60
39951;DHT22;25629;51.444;-2.606;2022-07-11T10:35:31;31.80;81.10
39951;DHT22;25629;51.444;-2.606;2022-07-11T10:37:57;31.70;80.30
39951;DHT22;25629;51.444;-2.606;2022-07-11T10:41:24;31.60;80.60
39951;DHT22;25629;51.444;-2.606;2022-07-11T10:48:16;31.40;79.80
39951;DHT22;25629;51.444;-2.606;2022-07-11T10:50:41;31.40;80.20
39951;DHT22;25629;51.444;-2.606;2022-07-11T10:53:09;31.50;80.00
39951;DHT22;25629;51.444;-2.606;2022-07-11T10:58:20;31.50;81.10
39951;DHT22;25629;51.444;-2.606;2022-07-11T11:01:09;31.60;79.90
39951;DHT22;25629;51.444;-2.606;2022-07-11T11:03:38;31.80;80.00
39951;DHT22;25629;51.444;-2.606;2022-07-11T11:06:03;32.00;79.10
39951;DHT22;25629;51.444;-2.606;2022-07-11T11:11:34;32.40;79.20
39951;DHT22;25629;51.444;-2.606;2022-07-11T11:14:39;32.40;78.20
39951;DHT22;25629;51.444;-2.606;2022-07-11T11:16:40;32.40;78.20
39951;DHT22;25629;51.444;-2.606;2022-07-11T11:19:05;32.40;78.20
39951;DHT22;25629;51.444;-2.606;2022-07-11T11:21:31;32.20;77.40
39951;DHT22;25629;51.444;-2.606;2022-07-11T11:26:41;31.90;76.90
39951;DHT22;25629;51.444;-2.606;2022-07-11T11:29:06;31.80;76.90
39951;DHT22;25629;51.444;-2.606;2022-07-11T11:31:32;32.10;77.70
39951;DHT22;25629;51.444;-2.606;2022-07-11T11:34:02;32.20;77.80
39951;DHT22;25629;51.444;-2.606;2022-07-11T11:36:27;32.40;77.10
39951;DHT22;25629;51.444;-2.606;2022-07-11T11:38:53;32.30;77.90
39951;DHT22;25629;51.444;-2.606;2022-07-11T11:43:48;32.40;77.10
39951;DHT22;25629;51.444;-2.606;2022-07-11T11:46:14;32.50;77.60
39951;DHT22;25629;51.444;-2.606;2022-07-11T11:48:40;32.60;77.50
39951;DHT22;25629;51.444;-2.606;2022-07-11T11:51:11;32.40;76.90
39951;DHT22;25629;51.444;-2.606;2022-07-11T11:53:39;32.20;77.20
39951;DHT22;25629;51.444;-2.606;2022-07-11T11:56:14;32.20;77.30
39951;DHT22;25629;51.444;-2.606;2022-07-11T11:58:44;32.10;77.40
39951;DHT22;25629;51.444;-2.606;2022-07-11T12:01:10;32.00;77.50
39951;DHT22;25629;51.444;-2.606;2022-07-11T12:03:49;31.60;77.90
39951;DHT22;25629;51.444;-2.606;2022-07-11T12:06:14;31.80;77.80
39951;DHT22;25629;51.444;-2.606;2022-07-11T12:08:40;31.90;78.30
39951;DHT22;25629;51.444;-2.606;2022-07-11T12:11:06;32.00;77.50
39951;DHT22;25629;51.444;-2.606;2022-07-11T12:13:31;32.00;77.70
39951;DHT22;25629;51.444;-2.606;2022-07-11T12:15:57;32.20;77.60
39951;DHT22;25629;51.444;-2.606;2022-07-11T12:18:41;32.60;77.50
39951;DHT22;25629;51.444;-2.606;2022-07-11T12:21:10;32.70;78.40
39951;DHT22;25629;51.444;-2.606;2022-07-11T12:23:36;32.80;76.50
39951;DHT22;25629;51.444;-2.606;2022-07-11T12:26:01;32.70;77.20
39951;DHT22;25629;51.444;-2.606;2022-07-11T12:28:27;32.80;76.20
39951;DHT22;25629;51.444;-2.606;2022-07-11T12:30:56;33.10;77.60
39951;DHT22;25629;51.444;-2.606;2022-07-11T12:33:21;33.40;76.70
39951;DHT22;25629;51.444;-2.606;2022-07-11T12:36:01;33.50;76.10
39951;DHT22;25629;51.444;-2.606;2022-07-11T12:38:47;33.50;76.00
39951;DHT22;25629;51.444;-2.606;2022-07-11T12:41:13;33.60;75.30
39951;DHT22;25629;51.444;-2.606;2022-07-11T12:43:43;33.70;75.60
39951;DHT22;25629;51.444;-2.606;2022-07-11T12:46:28;34.10;75.10
39951;DHT22;25629;51.444;-2.606;2022-07-11T12:48:54;34.30;74.10
39951;DHT22;25629;51.444;-2.606;2022-07-11T12:53:59;34.60;74.20
39951;DHT22;25629;51.444;-2.606;2022-07-11T12:56:24;34.80;74.20
39951;DHT22;25629;51.444;-2.606;2022-07-11T12:58:50;35.00;75.00
39951;DHT22;25629;51.444;-2.606;2022-07-11T13:01:15;35.30;73.60
39951;DHT22;25629;51.444;-2.606;2022-07-11T13:03:41;35.70;73.10
39951;DHT22;25629;51.444;-2.606;2022-07-11T13:06:06;36.10;72.30
39951;DHT22;25629;51.444;-2.606;2022-07-11T13:08:33;35.80;72.30
39951;DHT22;25629;51.444;-2.606;2022-07-11T13:11:18;35.80;72.50
39951;DHT22;25629;51.444;-2.606;2022-07-11T13:13:45;36.30;72.50
39951;DHT22;25629;51.444;-2.606;2022-07-11T13:16:14;36.80;75.90
39951;DHT22;25629;51.444;-2.606;2022-07-11T13:18:40;37.20;71.00
39951;DHT22;25629;51.444;-2.606;2022-07-11T13:21:05;36.60;70.50
39951;DHT22;25629;51.444;-2.606;2022-07-11T13:23:34;35.70;71.20
39951;DHT22;25629;51.444;-2.606;2022-07-11T13:26:00;35.40;73.80
39951;DHT22;25629;51.444;-2.606;2022-07-11T13:28:25;35.50;72.70
39951;DHT22;25629;51.444;-2.606;2022-07-11T13:30:52;35.70;72.10
39951;DHT22;25629;51.444;-2.606;2022-07-11T13:33:18;35.50;73.00
39951;DHT22;25629;51.444;-2.606;2022-07-11T13:35:44;35.40;71.70
39951;DHT22;25629;51.444;-2.606;2022-07-11T13:38:11;35.30;71.70
39951;DHT22;25629;51.444;-2.606;2022-07-11T13:40:36;35.30;72.90
39951;DHT22;25629;51.444;-2.606;2022-07-11T13:43:02;35.70;71.70
39951;DHT22;25629;51.444;-2.606;2022-07-11T13:45:28;36.00;72.10
39951;DHT22;25629;51.444;-2.606;2022-07-11T13:47:54;36.20;71.00
39951;DHT22;25629;51.444;-2.606;2022-07-11T13:50:20;36.00;71.50
39951;DHT22;25629;51.444;-2.606;2022-07-11T13:52:48;35.80;70.80
39951;DHT22;25629;51.444;-2.606;2022-07-11T13:55:15;35.60;71.70
39951;DHT22;25629;51.444;-2.606;2022-07-11T13:57:41;35.90;71.00
39951;DHT22;25629;51.444;-2.606;2022-07-11T14:00:06;35.70;70.70
39951;DHT22;25629;51.444;-2.606;2022-07-11T14:02:32;35.60;71.20
39951;DHT22;25629;51.444;-2.606;2022-07-11T14:04:58;35.70;71.60
39951;DHT22;25629;51.444;-2.606;2022-07-11T14:07:24;35.40;71.20
39951;DHT22;25629;51.444;-2.606;2022-07-11T14:09:49;35.10;71.30
39951;DHT22;25629;51.444;-2.606;2022-07-11T14:12:15;35.20;72.00
39951;DHT22;25629;51.444;-2.606;2022-07-11T14:14:41;35.00;71.70
39951;DHT22;25629;51.444;-2.606;2022-07-11T14:17:06;35.20;71.70
39951;DHT22;25629;51.444;-2.606;2022-07-11T14:19:32;35.20;71.60
39951;DHT22;25629;51.444;-2.606;2022-07-11T14:21:58;35.30;72.10
39951;DHT22;25629;51.444;-2.606;2022-07-11T14:24:24;35.30;71.40
39951;DHT22;25629;51.444;-2.606;2022-07-11T14:26:52;35.40;74.10
39951;DHT22;25629;51.444;-2.606;2022-07-11T14:29:17;36.00;72.40
39951;DHT22;25629;51.444;-2.606;2022-07-11T14:31:43;36.90;71.50
39951;DHT22;25629;51.444;-2.606;2022-07-11T14:34:08;37.90;70.30
39951;DHT22;25629;51.444;-2.606;2022-07-11T14:36:34;38.60;68.80
39951;DHT22;25629;51.444;-2.606;2022-07-11T14:39:00;37.90;69.20
39951;DHT22;25629;51.444;-2.606;2022-07-11T14:41:25;38.00;68.90
39951;DHT22;25629;51.444;-2.606;2022-07-11T14:43:51;38.10;69.70
39951;DHT22;25629;51.444;-2.606;2022-07-11T14:46:16;38.30;69.50
39951;DHT22;25629;51.444;-2.606;2022-07-11T14:48:42;38.60;68.80
39951;DHT22;25629;51.444;-2.606;2022-07-11T14:51:08;39.30;68.20
39951;DHT22;25629;51.444;-2.606;2022-07-11T14:53:34;40.10;68.20
39951;DHT22;25629;51.444;-2.606;2022-07-11T14:56:01;40.10;67.80
39951;DHT22;25629;51.444;-2.606;2022-07-11T14:58:27;39.20;67.10
39951;DHT22;25629;51.444;-2.606;2022-07-11T15:00:52;38.50;68.00
39951;DHT22;25629;51.444;-2.606;2022-07-11T15:03:18;37.90;68.30
39951;DHT22;25629;51.444;-2.606;2022-07-11T15:06:02;37.60;68.20
39951;DHT22;25629;51.444;-2.606;2022-07-11T15:08:27;37.10;69.50
39951;DHT22;25629;51.444;-2.606;2022-07-11T15:11:12;36.70;69.70
39951;DHT22;25629;51.444;-2.606;2022-07-11T15:13:56;37.10;69.50
39951;DHT22;25629;51.444;-2.606;2022-07-11T15:16:22;36.80;69.80
39951;DHT22;25629;51.444;-2.606;2022-07-11T15:18:48;36.40;70.90
39951;DHT22;25629;51.444;-2.606;2022-07-11T15:21:13;36.50;69.60
39951;DHT22;25629;51.444;-2.606;2022-07-11T15:23:39;36.90;69.00
39951;DHT22;25629;51.444;-2.606;2022-07-11T15:26:04;36.20;69.10
39951;DHT22;25629;51.444;-2.606;2022-07-11T15:28:30;35.30;70.00
39951;DHT22;25629;51.444;-2.606;2022-07-11T15:30:56;34.50;72.20
39951;DHT22;25629;51.444;-2.606;2022-07-11T15:33:21;34.20;72.10
39951;DHT22;25629;51.444;-2.606;2022-07-11T15:35:50;33.60;72.30
39951;DHT22;25629;51.444;-2.606;2022-07-11T15:38:18;33.40;73.20
39951;DHT22;25629;51.444;-2.606;2022-07-11T15:40:43;33.50;74.00